sensor_id;sensor_type;location;lat;lon;timestamp;P1;durP1;ratioP1;P2;durP2;ratioP2
15878;SDS011;61999;51.514;14.614;2024-01-07T00:00:29;16.20;;;10.87;;
15878;SDS011;61999;51.514;14.614;2024-01-07T00:02:57;17.83;;;10.50;;
15878;SDS011;61999;51.514;14.614;2024-01-07T00:05:26;16.77;;;11.33;;
15878;SDS011;61999;51.514;14.614;2024-01-07T00:07:56;16.43;;;10.90;;
15878;SDS011;61999;51.514;14.614;2024-01-07T00:10:24;17.27;;;11.63;;
15878;SDS011;61999;51.514;14.614;2024-01-07T00:12:52;17.93;;;10.87;;
15878;SDS011;61999;51.514;14.614;2024-01-07T00:15:20;16.80;;;10.47;;
15878;SDS011;61999;51.514;14.614;2024-01-07T00:17:48;15.10;;;10.27;;
15878;SDS011;61999;51.514;14.614;2024-01-07T00:20:16;14.57;;;10.10;;
15878;SDS011;61999;51.514;14.614;2024-01-07T00:22:45;13.27;;;9.60;;
15878;SDS011;61999;51.514;14.614;2024-01-07T00:25:13;13.47;;;10.03;;
15878;SDS011;61999;51.514;14.614;2024-01-07T00:27:41;17.77;;;10.60;;
15878;SDS011;61999;51.514;14.614;2024-01-07T00:30:10;20.60;;;13.57;;
15878;SDS011;61999;51.514;14.614;2024-01-07T00:32:38;18.27;;;11.67;;
15878;SDS011;61999;51.514;14.614;2024-01-07T00:35:07;36.23;;;18.93;;
15878;SDS011;61999;51.514;14.614;2024-01-07T00:37:35;15.90;;;11.30;;
15878;SDS011;61999;51.514;14.614;2024-01-07T00:40:06;16.37;;;10.73;;
15878;SDS011;61999;51.514;14.614;2024-01-07T00:42:35;19.83;;;12.00;;
15878;SDS011;61999;51.514;14.614;2024-01-07T00:45:03;22.87;;;14.43;;
15878;SDS011;61999;51.514;14.614;2024-01-07T00:47:33;26.27;;;15.53;;
15878;SDS011;61999;51.514;14.614;2024-01-07T00:50:01;17.53;;;12.30;;
15878;SDS011;61999;51.514;14.614;2024-01-07T00:52:29;15.83;;;11.17;;
15878;SDS011;61999;51.514;14.614;2024-01-07T00:54:57;23.07;;;15.10;;
15878;SDS011;61999;51.514;14.614;2024-01-07T00:57:26;17.53;;;11.03;;
15878;SDS011;61999;51.514;14.614;2024-01-07T00:59:54;15.97;;;10.50;;
15878;SDS011;61999;51.514;14.614;2024-01-07T01:02:22;13.77;;;9.70;;
15878;SDS011;61999;51.514;14.614;2024-01-07T01:04:50;17.87;;;12.00;;
15878;SDS011;61999;51.514;14.614;2024-01-07T01:07:18;19.07;;;13.03;;
15878;SDS011;61999;51.514;14.614;2024-01-07T01:09:46;15.77;;;10.70;;
15878;SDS011;61999;51.514;14.614;2024-01-07T01:12:14;18.47;;;12.27;;
15878;SDS011;61999;51.514;14.614;2024-01-07T01:14:44;19.00;;;13.13;;
15878;SDS011;61999;51.514;14.614;2024-01-07T01:17:12;13.70;;;10.50;;
15878;SDS011;61999;51.514;14.614;2024-01-07T01:19:40;17.23;;;11.43;;
15878;SDS011;61999;51.514;14.614;2024-01-07T01:22:08;17.50;;;10.67;;
15878;SDS011;61999;51.514;14.614;2024-01-07T01:24:36;15.17;;;10.03;;
15878;SDS011;61999;51.514;14.614;2024-01-07T01:27:04;16.93;;;11.17;;
15878;SDS011;61999;51.514;14.614;2024-01-07T01:29:32;15.33;;;10.50;;
15878;SDS011;61999;51.514;14.614;2024-01-07T01:32:02;16.77;;;11.87;;
15878;SDS011;61999;51.514;14.614;2024-01-07T01:34:32;17.30;;;11.30;;
15878;SDS011;61999;51.514;14.614;2024-01-07T01:37:00;15.33;;;11.40;;
15878;SDS011;61999;51.514;14.614;2024-01-07T01:39:28;18.17;;;11.93;;
15878;SDS011;61999;51.514;14.614;2024-01-07T01:41:56;16.87;;;11.23;;
15878;SDS011;61999;51.514;14.614;2024-01-07T01:44:24;16.73;;;9.97;;
15878;SDS011;61999;51.514;14.614;2024-01-07T01:46:54;16.37;;;10.50;;
15878;SDS011;61999;51.514;14.614;2024-01-07T01:49:24;13.83;;;9.40;;
15878;SDS011;61999;51.514;14.614;2024-01-07T01:51:53;16.00;;;10.77;;
15878;SDS011;61999;51.514;14.614;2024-01-07T01:54:22;16.10;;;10.70;;
15878;SDS011;61999;51.514;14.614;2024-01-07T01:56:50;14.53;;;9.67;;
15878;SDS011;61999;51.514;14.614;2024-01-07T01:59:19;15.73;;;10.10;;
15878;SDS011;61999;51.514;14.614;2024-01-07T02:01:48;14.53;;;10.47;;
15878;SDS011;61999;51.514;14.614;2024-01-07T02:04:16;19.37;;;11.70;;
15878;SDS011;61999;51.514;14.614;2024-01-07T02:06:46;14.27;;;10.53;;
15878;SDS011;61999;51.514;14.614;2024-01-07T02:09:14;13.40;;;9.73;;
15878;SDS011;61999;51.514;14.614;2024-01-07T02:11:42;12.00;;;9.30;;
15878;SDS011;61999;51.514;14.614;2024-01-07T02:14:10;16.57;;;10.77;;
15878;SDS011;61999;51.514;14.614;2024-01-07T02:16:38;14.97;;;9.90;;
15878;SDS011;61999;51.514;14.614;2024-01-07T02:19:06;13.10;;;10.37;;
15878;SDS011;61999;51.514;14.614;2024-01-07T02:21:34;13.27;;;9.37;;
15878;SDS011;61999;51.514;14.614;2024-01-07T02:24:05;14.63;;;10.60;;
15878;SDS011;61999;51.514;14.614;2024-01-07T02:26:42;14.77;;;9.57;;
15878;SDS011;61999;51.514;14.614;2024-01-07T02:29:10;12.53;;;9.30;;
15878;SDS011;61999;51.514;14.614;2024-01-07T02:31:38;14.77;;;10.60;;
15878;SDS011;61999;51.514;14.614;2024-01-07T02:34:06;12.77;;;10.00;;
15878;SDS011;61999;51.514;14.614;2024-01-07T02:36:36;14.93;;;10.03;;
15878;SDS011;61999;51.514;14.614;2024-01-07T02:39:06;16.53;;;10.20;;
15878;SDS011;61999;51.514;14.614;2024-01-07T02:41:34;15.57;;;10.30;;
15878;SDS011;61999;51.514;14.614;2024-01-07T02:44:02;13.63;;;9.47;;
15878;SDS011;61999;51.514;14.614;2024-01-07T02:46:30;12.00;;;8.80;;
15878;SDS011;61999;51.514;14.614;2024-01-07T02:48:58;15.70;;;10.20;;
15878;SDS011;61999;51.514;14.614;2024-01-07T02:51:26;12.37;;;9.30;;
15878;SDS011;61999;51.514;14.614;2024-01-07T02:53:58;10.63;;;8.50;;
15878;SDS011;61999;51.514;14.614;2024-01-07T02:56:27;13.63;;;9.30;;
15878;SDS011;61999;51.514;14.614;2024-01-07T02:58:55;10.63;;;8.80;;
15878;SDS011;61999;51.514;14.614;2024-01-07T03:01:23;14.80;;;9.27;;
15878;SDS011;61999;51.514;14.614;2024-01-07T03:03:52;11.27;;;8.20;;
15878;SDS011;61999;51.514;14.614;2024-01-07T03:06:20;13.07;;;8.63;;
15878;SDS011;61999;51.514;14.614;2024-01-07T03:08:48;11.90;;;7.90;;
15878;SDS011;61999;51.514;14.614;2024-01-07T03:11:16;12.97;;;8.47;;
15878;SDS011;61999;51.514;14.614;2024-01-07T03:13:45;11.43;;;8.33;;
15878;SDS011;61999;51.514;14.614;2024-01-07T03:16:18;14.20;;;9.43;;
15878;SDS011;61999;51.514;14.614;2024-01-07T03:18:47;14.07;;;9.17;;
15878;SDS011;61999;51.514;14.614;2024-01-07T03:21:18;10.50;;;7.67;;
15878;SDS011;61999;51.514;14.614;2024-01-07T03:23:46;14.93;;;9.60;;
15878;SDS011;61999;51.514;14.614;2024-01-07T03:26:16;13.07;;;9.63;;
15878;SDS011;61999;51.514;14.614;2024-01-07T03:28:46;11.97;;;8.80;;
15878;SDS011;61999;51.514;14.614;2024-01-07T03:31:15;11.80;;;9.17;;
15878;SDS011;61999;51.514;14.614;2024-01-07T03:33:45;12.30;;;9.20;;
15878;SDS011;61999;51.514;14.614;2024-01-07T03:36:13;13.83;;;9.33;;
15878;SDS011;61999;51.514;14.614;2024-01-07T03:38:41;10.00;;;8.10;;
15878;SDS011;61999;51.514;14.614;2024-01-07T03:41:09;10.53;;;8.07;;
15878;SDS011;61999;51.514;14.614;2024-01-07T03:43:43;12.10;;;8.13;;
15878;SDS011;61999;51.514;14.614;2024-01-07T03:46:12;11.83;;;8.83;;
15878;SDS011;61999;51.514;14.614;2024-01-07T03:48:41;12.47;;;8.27;;
15878;SDS011;61999;51.514;14.614;2024-01-07T03:51:09;12.70;;;8.47;;
15878;SDS011;61999;51.514;14.614;2024-01-07T03:53:38;11.93;;;9.27;;
15878;SDS011;61999;51.514;14.614;2024-01-07T03:56:06;8.80;;;7.87;;
15878;SDS011;61999;51.514;14.614;2024-01-07T03:58:34;10.67;;;7.97;;
15878;SDS011;61999;51.514;14.614;2024-01-07T04:01:02;15.17;;;8.00;;
15878;SDS011;61999;51.514;14.614;2024-01-07T04:03:32;12.73;;;8.37;;
15878;SDS011;61999;51.514;14.614;2024-01-07T04:06:00;11.03;;;7.33;;
15878;SDS011;61999;51.514;14.614;2024-01-07T04:08:28;9.17;;;7.03;;
15878;SDS011;61999;51.514;14.614;2024-01-07T04:10:56;10.27;;;7.60;;
15878;SDS011;61999;51.514;14.614;2024-01-07T04:13:24;11.13;;;7.30;;
15878;SDS011;61999;51.514;14.614;2024-01-07T04:15:52;9.70;;;7.30;;
15878;SDS011;61999;51.514;14.614;2024-01-07T04:18:20;9.47;;;6.63;;
15878;SDS011;61999;51.514;14.614;2024-01-07T04:20:50;9.53;;;6.97;;
15878;SDS011;61999;51.514;14.614;2024-01-07T04:23:18;10.57;;;7.80;;
15878;SDS011;61999;51.514;14.614;2024-01-07T04:25:46;8.93;;;6.87;;
15878;SDS011;61999;51.514;14.614;2024-01-07T04:28:14;8.40;;;6.50;;
15878;SDS011;61999;51.514;14.614;2024-01-07T04:30:41;10.20;;;7.10;;
15878;SDS011;61999;51.514;14.614;2024-01-07T04:33:09;7.47;;;6.30;;
15878;SDS011;61999;51.514;14.614;2024-01-07T04:35:38;7.93;;;6.10;;
15878;SDS011;61999;51.514;14.614;2024-01-07T04:38:07;7.03;;;5.37;;
15878;SDS011;61999;51.514;14.614;2024-01-07T04:40:35;8.57;;;6.17;;
15878;SDS011;61999;51.514;14.614;2024-01-07T04:43:03;8.10;;;5.73;;
15878;SDS011;61999;51.514;14.614;2024-01-07T04:45:31;7.63;;;6.10;;
15878;SDS011;61999;51.514;14.614;2024-01-07T04:47:59;6.97;;;5.57;;
15878;SDS011;61999;51.514;14.614;2024-01-07T04:50:26;7.37;;;5.10;;
15878;SDS011;61999;51.514;14.614;2024-01-07T04:52:54;7.93;;;5.33;;
15878;SDS011;61999;51.514;14.614;2024-01-07T04:55:26;7.53;;;5.20;;
15878;SDS011;61999;51.514;14.614;2024-01-07T04:57:57;7.57;;;5.30;;
15878;SDS011;61999;51.514;14.614;2024-01-07T05:00:25;6.40;;;5.80;;
15878;SDS011;61999;51.514;14.614;2024-01-07T05:02:53;7.40;;;6.40;;
15878;SDS011;61999;51.514;14.614;2024-01-07T05:05:21;6.60;;;5.90;;
15878;SDS011;61999;51.514;14.614;2024-01-07T05:07:49;7.07;;;5.67;;
15878;SDS011;61999;51.514;14.614;2024-01-07T05:10:17;5.43;;;4.77;;
15878;SDS011;61999;51.514;14.614;2024-01-07T05:12:47;5.53;;;4.80;;
15878;SDS011;61999;51.514;14.614;2024-01-07T05:15:15;6.70;;;5.53;;
15878;SDS011;61999;51.514;14.614;2024-01-07T05:17:43;7.90;;;6.07;;
15878;SDS011;61999;51.514;14.614;2024-01-07T05:20:11;6.83;;;5.17;;
15878;SDS011;61999;51.514;14.614;2024-01-07T05:22:42;7.10;;;5.37;;
15878;SDS011;61999;51.514;14.614;2024-01-07T05:25:10;5.80;;;4.77;;
15878;SDS011;61999;51.514;14.614;2024-01-07T05:27:41;6.83;;;5.33;;
15878;SDS011;61999;51.514;14.614;2024-01-07T05:30:11;7.47;;;5.63;;
15878;SDS011;61999;51.514;14.614;2024-01-07T05:32:39;6.57;;;5.30;;
15878;SDS011;61999;51.514;14.614;2024-01-07T05:35:08;7.33;;;5.63;;
15878;SDS011;61999;51.514;14.614;2024-01-07T05:37:36;8.53;;;4.90;;
15878;SDS011;61999;51.514;14.614;2024-01-07T05:40:05;6.30;;;5.00;;
15878;SDS011;61999;51.514;14.614;2024-01-07T05:42:34;6.07;;;4.57;;
15878;SDS011;61999;51.514;14.614;2024-01-07T05:45:02;6.43;;;4.33;;
15878;SDS011;61999;51.514;14.614;2024-01-07T05:47:32;5.63;;;4.43;;
15878;SDS011;61999;51.514;14.614;2024-01-07T05:50:00;4.73;;;4.10;;
15878;SDS011;61999;51.514;14.614;2024-01-07T05:52:29;5.27;;;4.30;;
15878;SDS011;61999;51.514;14.614;2024-01-07T05:54:57;6.47;;;3.97;;
15878;SDS011;61999;51.514;14.614;2024-01-07T05:57:25;4.07;;;3.67;;
15878;SDS011;61999;51.514;14.614;2024-01-07T05:59:53;4.97;;;3.90;;
15878;SDS011;61999;51.514;14.614;2024-01-07T06:02:21;6.17;;;4.20;;
15878;SDS011;61999;51.514;14.614;2024-01-07T06:04:52;4.80;;;3.63;;
15878;SDS011;61999;51.514;14.614;2024-01-07T06:07:20;5.60;;;3.87;;
15878;SDS011;61999;51.514;14.614;2024-01-07T06:09:48;4.53;;;3.87;;
15878;SDS011;61999;51.514;14.614;2024-01-07T06:12:16;4.30;;;3.73;;
15878;SDS011;61999;51.514;14.614;2024-01-07T06:14:45;5.37;;;3.63;;
15878;SDS011;61999;51.514;14.614;2024-01-07T06:17:13;5.17;;;4.00;;
15878;SDS011;61999;51.514;14.614;2024-01-07T06:19:41;5.33;;;3.87;;
15878;SDS011;61999;51.514;14.614;2024-01-07T06:22:10;5.20;;;3.50;;
15878;SDS011;61999;51.514;14.614;2024-01-07T06:24:39;5.93;;;4.00;;
15878;SDS011;61999;51.514;14.614;2024-01-07T06:27:07;7.00;;;4.30;;
15878;SDS011;61999;51.514;14.614;2024-01-07T06:29:35;5.10;;;3.63;;
15878;SDS011;61999;51.514;14.614;2024-01-07T06:32:03;4.57;;;3.50;;
15878;SDS011;61999;51.514;14.614;2024-01-07T06:34:32;4.87;;;3.53;;
15878;SDS011;61999;51.514;14.614;2024-01-07T06:37:00;5.77;;;4.23;;
15878;SDS011;61999;51.514;14.614;2024-01-07T06:39:29;4.63;;;4.10;;
15878;SDS011;61999;51.514;14.614;2024-01-07T06:41:58;4.00;;;3.33;;
15878;SDS011;61999;51.514;14.614;2024-01-07T06:44:26;4.50;;;3.40;;
15878;SDS011;61999;51.514;14.614;2024-01-07T06:46:54;4.70;;;3.97;;
15878;SDS011;61999;51.514;14.614;2024-01-07T06:49:22;5.27;;;3.93;;
15878;SDS011;61999;51.514;14.614;2024-01-07T06:51:50;6.90;;;4.40;;
15878;SDS011;61999;51.514;14.614;2024-01-07T06:54:18;6.20;;;4.60;;
15878;SDS011;61999;51.514;14.614;2024-01-07T06:56:47;5.50;;;4.10;;
15878;SDS011;61999;51.514;14.614;2024-01-07T06:59:15;5.23;;;3.97;;
15878;SDS011;61999;51.514;14.614;2024-01-07T07:01:43;5.60;;;4.60;;
15878;SDS011;61999;51.514;14.614;2024-01-07T07:04:11;4.50;;;4.00;;
15878;SDS011;61999;51.514;14.614;2024-01-07T07:06:39;6.67;;;4.33;;
15878;SDS011;61999;51.514;14.614;2024-01-07T07:09:08;5.07;;;4.10;;
15878;SDS011;61999;51.514;14.614;2024-01-07T07:11:37;4.60;;;3.53;;
15878;SDS011;61999;51.514;14.614;2024-01-07T07:14:07;5.00;;;4.30;;
15878;SDS011;61999;51.514;14.614;2024-01-07T07:16:35;4.13;;;3.63;;
15878;SDS011;61999;51.514;14.614;2024-01-07T07:19:03;5.30;;;4.07;;
15878;SDS011;61999;51.514;14.614;2024-01-07T07:21:31;5.73;;;4.10;;
15878;SDS011;61999;51.514;14.614;2024-01-07T07:23:59;6.00;;;4.20;;
15878;SDS011;61999;51.514;14.614;2024-01-07T07:26:27;5.60;;;4.33;;
15878;SDS011;61999;51.514;14.614;2024-01-07T07:28:55;6.50;;;4.40;;
15878;SDS011;61999;51.514;14.614;2024-01-07T07:31:27;5.70;;;4.77;;
15878;SDS011;61999;51.514;14.614;2024-01-07T07:33:55;4.63;;;3.87;;
15878;SDS011;61999;51.514;14.614;2024-01-07T07:36:24;4.70;;;4.20;;
15878;SDS011;61999;51.514;14.614;2024-01-07T07:38:52;6.90;;;4.20;;
15878;SDS011;61999;51.514;14.614;2024-01-07T07:41:20;4.70;;;4.10;;
15878;SDS011;61999;51.514;14.614;2024-01-07T07:43:47;4.47;;;3.53;;
15878;SDS011;61999;51.514;14.614;2024-01-07T07:46:16;6.00;;;4.33;;
15878;SDS011;61999;51.514;14.614;2024-01-07T07:48:48;4.90;;;4.23;;
15878;SDS011;61999;51.514;14.614;2024-01-07T07:51:16;4.50;;;3.47;;
15878;SDS011;61999;51.514;14.614;2024-01-07T07:53:44;4.80;;;3.80;;
15878;SDS011;61999;51.514;14.614;2024-01-07T07:56:12;4.30;;;3.60;;
15878;SDS011;61999;51.514;14.614;2024-01-07T07:58:40;5.80;;;3.97;;
15878;SDS011;61999;51.514;14.614;2024-01-07T08:01:11;4.70;;;3.57;;
15878;SDS011;61999;51.514;14.614;2024-01-07T08:03:39;5.53;;;3.57;;
15878;SDS011;61999;51.514;14.614;2024-01-07T08:06:08;4.30;;;3.23;;
15878;SDS011;61999;51.514;14.614;2024-01-07T08:08:37;4.43;;;4.00;;
15878;SDS011;61999;51.514;14.614;2024-01-07T08:11:09;3.87;;;3.00;;
15878;SDS011;61999;51.514;14.614;2024-01-07T08:13:39;4.47;;;3.07;;
15878;SDS011;61999;51.514;14.614;2024-01-07T08:16:09;4.23;;;3.40;;
15878;SDS011;61999;51.514;14.614;2024-01-07T08:18:37;3.93;;;3.23;;
15878;SDS011;61999;51.514;14.614;2024-01-07T08:21:06;3.87;;;3.47;;
15878;SDS011;61999;51.514;14.614;2024-01-07T08:23:37;4.23;;;3.33;;
15878;SDS011;61999;51.514;14.614;2024-01-07T08:26:05;3.47;;;2.63;;
15878;SDS011;61999;51.514;14.614;2024-01-07T08:28:33;2.97;;;2.67;;
15878;SDS011;61999;51.514;14.614;2024-01-07T08:31:01;3.13;;;2.60;;
15878;SDS011;61999;51.514;14.614;2024-01-07T08:33:29;3.60;;;3.00;;
15878;SDS011;61999;51.514;14.614;2024-01-07T08:35:59;3.30;;;2.83;;
15878;SDS011;61999;51.514;14.614;2024-01-07T08:38:28;3.43;;;2.80;;
15878;SDS011;61999;51.514;14.614;2024-01-07T08:40:56;3.83;;;2.77;;
15878;SDS011;61999;51.514;14.614;2024-01-07T08:43:24;4.43;;;3.07;;
15878;SDS011;61999;51.514;14.614;2024-01-07T08:45:52;4.17;;;3.00;;
15878;SDS011;61999;51.514;14.614;2024-01-07T08:48:20;3.20;;;2.90;;
15878;SDS011;61999;51.514;14.614;2024-01-07T08:50:48;3.97;;;2.50;;
15878;SDS011;61999;51.514;14.614;2024-01-07T08:53:17;4.53;;;3.03;;
15878;SDS011;61999;51.514;14.614;2024-01-07T08:55:47;4.40;;;2.43;;
15878;SDS011;61999;51.514;14.614;2024-01-07T08:58:16;4.50;;;2.47;;
15878;SDS011;61999;51.514;14.614;2024-01-07T09:00:44;2.87;;;2.43;;
15878;SDS011;61999;51.514;14.614;2024-01-07T09:03:12;4.70;;;2.80;;
15878;SDS011;61999;51.514;14.614;2024-01-07T09:05:40;2.87;;;2.50;;
15878;SDS011;61999;51.514;14.614;2024-01-07T09:08:08;4.03;;;3.13;;
15878;SDS011;61999;51.514;14.614;2024-01-07T09:10:37;31.67;;;19.07;;
15878;SDS011;61999;51.514;14.614;2024-01-07T09:13:06;13.57;;;9.17;;
15878;SDS011;61999;51.514;14.614;2024-01-07T09:15:35;4.27;;;3.30;;
15878;SDS011;61999;51.514;14.614;2024-01-07T09:18:03;9.93;;;6.90;;
15878;SDS011;61999;51.514;14.614;2024-01-07T09:20:32;3.93;;;3.10;;
15878;SDS011;61999;51.514;14.614;2024-01-07T09:23:00;3.30;;;2.87;;
15878;SDS011;61999;51.514;14.614;2024-01-07T09:25:31;3.57;;;2.93;;
15878;SDS011;61999;51.514;14.614;2024-01-07T09:27:59;3.33;;;2.80;;
15878;SDS011;61999;51.514;14.614;2024-01-07T09:30:29;3.40;;;2.53;;
15878;SDS011;61999;51.514;14.614;2024-01-07T09:33:00;4.37;;;3.00;;
15878;SDS011;61999;51.514;14.614;2024-01-07T09:35:28;5.17;;;3.03;;
15878;SDS011;61999;51.514;14.614;2024-01-07T09:37:57;4.40;;;3.10;;
15878;SDS011;61999;51.514;14.614;2024-01-07T09:40:27;3.77;;;2.80;;
15878;SDS011;61999;51.514;14.614;2024-01-07T09:42:59;3.90;;;3.60;;
15878;SDS011;61999;51.514;14.614;2024-01-07T09:45:31;3.97;;;3.07;;
15878;SDS011;61999;51.514;14.614;2024-01-07T09:48:00;3.30;;;3.00;;
15878;SDS011;61999;51.514;14.614;2024-01-07T09:50:28;5.03;;;3.40;;
15878;SDS011;61999;51.514;14.614;2024-01-07T09:52:57;5.03;;;3.50;;
15878;SDS011;61999;51.514;14.614;2024-01-07T09:55:31;5.47;;;4.10;;
15878;SDS011;61999;51.514;14.614;2024-01-07T09:58:07;4.83;;;4.13;;
15878;SDS011;61999;51.514;14.614;2024-01-07T10:00:36;4.40;;;3.70;;
15878;SDS011;61999;51.514;14.614;2024-01-07T10:03:06;6.83;;;4.20;;
15878;SDS011;61999;51.514;14.614;2024-01-07T10:05:34;4.63;;;3.43;;
15878;SDS011;61999;51.514;14.614;2024-01-07T10:08:03;4.33;;;3.87;;
15878;SDS011;61999;51.514;14.614;2024-01-07T10:10:33;4.53;;;3.70;;
15878;SDS011;61999;51.514;14.614;2024-01-07T10:13:03;5.20;;;4.30;;
15878;SDS011;61999;51.514;14.614;2024-01-07T10:15:31;4.10;;;3.50;;
15878;SDS011;61999;51.514;14.614;2024-01-07T10:18:04;5.27;;;4.07;;
15878;SDS011;61999;51.514;14.614;2024-01-07T10:20:38;4.17;;;3.63;;
15878;SDS011;61999;51.514;14.614;2024-01-07T10:23:08;5.10;;;3.40;;
15878;SDS011;61999;51.514;14.614;2024-01-07T10:25:37;4.20;;;3.80;;
15878;SDS011;61999;51.514;14.614;2024-01-07T10:28:06;4.30;;;3.30;;
15878;SDS011;61999;51.514;14.614;2024-01-07T10:30:46;3.77;;;3.20;;
15878;SDS011;61999;51.514;14.614;2024-01-07T10:33:24;3.27;;;2.77;;
15878;SDS011;61999;51.514;14.614;2024-01-07T10:35:52;4.13;;;3.17;;
15878;SDS011;61999;51.514;14.614;2024-01-07T10:38:30;5.20;;;4.10;;
15878;SDS011;61999;51.514;14.614;2024-01-07T10:40:59;4.30;;;3.30;;
15878;SDS011;61999;51.514;14.614;2024-01-07T10:43:29;5.07;;;3.63;;
15878;SDS011;61999;51.514;14.614;2024-01-07T10:45:59;5.67;;;4.77;;
15878;SDS011;61999;51.514;14.614;2024-01-07T10:48:32;4.23;;;3.37;;
15878;SDS011;61999;51.514;14.614;2024-01-07T10:51:05;6.90;;;4.87;;
15878;SDS011;61999;51.514;14.614;2024-01-07T10:53:46;4.13;;;3.70;;
15878;SDS011;61999;51.514;14.614;2024-01-07T10:56:22;15.63;;;10.07;;
15878;SDS011;61999;51.514;14.614;2024-01-07T10:58:54;3.63;;;3.20;;
15878;SDS011;61999;51.514;14.614;2024-01-07T11:01:23;5.07;;;4.57;;
15878;SDS011;61999;51.514;14.614;2024-01-07T11:03:57;3.77;;;3.40;;
15878;SDS011;61999;51.514;14.614;2024-01-07T11:06:35;3.93;;;3.53;;
15878;SDS011;61999;51.514;14.614;2024-01-07T11:09:14;4.37;;;3.53;;
15878;SDS011;61999;51.514;14.614;2024-01-07T11:11:51;3.23;;;3.00;;
15878;SDS011;61999;51.514;14.614;2024-01-07T11:14:35;3.93;;;3.50;;
15878;SDS011;61999;51.514;14.614;2024-01-07T11:17:05;6.13;;;3.40;;
15878;SDS011;61999;51.514;14.614;2024-01-07T11:19:36;5.13;;;4.63;;
15878;SDS011;61999;51.514;14.614;2024-01-07T11:22:24;4.40;;;3.60;;
15878;SDS011;61999;51.514;14.614;2024-01-07T11:24:55;5.80;;;4.70;;
15878;SDS011;61999;51.514;14.614;2024-01-07T11:27:24;4.30;;;3.73;;
15878;SDS011;61999;51.514;14.614;2024-01-07T11:29:57;4.67;;;3.80;;
15878;SDS011;61999;51.514;14.614;2024-01-07T11:32:31;3.67;;;3.37;;
15878;SDS011;61999;51.514;14.614;2024-01-07T11:35:03;4.43;;;4.03;;
15878;SDS011;61999;51.514;14.614;2024-01-07T11:37:32;4.90;;;3.77;;
15878;SDS011;61999;51.514;14.614;2024-01-07T11:40:02;3.63;;;3.33;;
15878;SDS011;61999;51.514;14.614;2024-01-07T11:42:33;5.63;;;3.87;;
15878;SDS011;61999;51.514;14.614;2024-01-07T11:45:01;4.20;;;3.33;;
15878;SDS011;61999;51.514;14.614;2024-01-07T11:47:30;5.67;;;3.80;;
15878;SDS011;61999;51.514;14.614;2024-01-07T11:49:58;4.67;;;3.50;;
15878;SDS011;61999;51.514;14.614;2024-01-07T11:52:28;3.63;;;2.77;;
15878;SDS011;61999;51.514;14.614;2024-01-07T11:55:00;3.97;;;3.17;;
15878;SDS011;61999;51.514;14.614;2024-01-07T11:57:30;5.17;;;3.20;;
15878;SDS011;61999;51.514;14.614;2024-01-07T11:59:58;4.40;;;3.17;;
15878;SDS011;61999;51.514;14.614;2024-01-07T12:02:30;4.73;;;3.37;;
15878;SDS011;61999;51.514;14.614;2024-01-07T12:04:58;3.80;;;3.23;;
15878;SDS011;61999;51.514;14.614;2024-01-07T12:07:29;3.57;;;3.13;;
15878;SDS011;61999;51.514;14.614;2024-01-07T12:09:57;3.93;;;3.53;;
15878;SDS011;61999;51.514;14.614;2024-01-07T12:12:25;3.10;;;2.80;;
15878;SDS011;61999;51.514;14.614;2024-01-07T12:14:55;5.10;;;3.20;;
15878;SDS011;61999;51.514;14.614;2024-01-07T12:17:25;4.03;;;2.90;;
15878;SDS011;61999;51.514;14.614;2024-01-07T12:19:53;3.47;;;3.07;;
15878;SDS011;61999;51.514;14.614;2024-01-07T12:22:24;3.50;;;3.20;;
15878;SDS011;61999;51.514;14.614;2024-01-07T12:25:02;3.83;;;2.97;;
15878;SDS011;61999;51.514;14.614;2024-01-07T12:27:30;3.70;;;3.00;;
15878;SDS011;61999;51.514;14.614;2024-01-07T12:29:58;4.50;;;3.53;;
15878;SDS011;61999;51.514;14.614;2024-01-07T12:32:27;3.70;;;3.10;;
15878;SDS011;61999;51.514;14.614;2024-01-07T12:34:56;3.97;;;3.33;;
15878;SDS011;61999;51.514;14.614;2024-01-07T12:37:25;4.53;;;3.17;;
15878;SDS011;61999;51.514;14.614;2024-01-07T12:39:55;3.97;;;3.00;;
15878;SDS011;61999;51.514;14.614;2024-01-07T12:42:23;3.63;;;2.90;;
15878;SDS011;61999;51.514;14.614;2024-01-07T12:44:51;3.73;;;3.07;;
15878;SDS011;61999;51.514;14.614;2024-01-07T12:47:19;3.40;;;2.93;;
15878;SDS011;61999;51.514;14.614;2024-01-07T12:49:47;3.83;;;2.97;;
15878;SDS011;61999;51.514;14.614;2024-01-07T12:52:15;4.47;;;3.10;;
15878;SDS011;61999;51.514;14.614;2024-01-07T12:54:43;2.97;;;2.77;;
15878;SDS011;61999;51.514;14.614;2024-01-07T12:57:13;3.93;;;3.27;;
15878;SDS011;61999;51.514;14.614;2024-01-07T12:59:41;3.07;;;2.77;;
15878;SDS011;61999;51.514;14.614;2024-01-07T13:02:09;3.73;;;3.20;;
15878;SDS011;61999;51.514;14.614;2024-01-07T13:04:37;4.37;;;3.50;;
15878;SDS011;61999;51.514;14.614;2024-01-07T13:07:05;5.53;;;3.80;;
15878;SDS011;61999;51.514;14.614;2024-01-07T13:09:33;4.07;;;3.20;;
15878;SDS011;61999;51.514;14.614;2024-01-07T13:12:01;3.00;;;2.63;;
15878;SDS011;61999;51.514;14.614;2024-01-07T13:14:31;4.03;;;3.50;;
15878;SDS011;61999;51.514;14.614;2024-01-07T13:16:59;3.33;;;2.97;;
15878;SDS011;61999;51.514;14.614;2024-01-07T13:19:31;3.60;;;2.73;;
15878;SDS011;61999;51.514;14.614;2024-01-07T13:21:59;6.37;;;3.70;;
15878;SDS011;61999;51.514;14.614;2024-01-07T13:24:27;4.53;;;3.73;;
15878;SDS011;61999;51.514;14.614;2024-01-07T13:26:56;4.03;;;3.20;;
15878;SDS011;61999;51.514;14.614;2024-01-07T13:29:24;4.67;;;3.20;;
15878;SDS011;61999;51.514;14.614;2024-01-07T13:31:53;44.80;;;18.97;;
15878;SDS011;61999;51.514;14.614;2024-01-07T13:34:21;5.00;;;4.43;;
15878;SDS011;61999;51.514;14.614;2024-01-07T13:36:49;4.03;;;3.30;;
15878;SDS011;61999;51.514;14.614;2024-01-07T13:39:18;3.70;;;3.20;;
15878;SDS011;61999;51.514;14.614;2024-01-07T13:41:47;5.50;;;3.33;;
15878;SDS011;61999;51.514;14.614;2024-01-07T13:44:16;3.10;;;2.87;;
15878;SDS011;61999;51.514;14.614;2024-01-07T13:46:44;3.20;;;2.90;;
15878;SDS011;61999;51.514;14.614;2024-01-07T13:49:15;4.80;;;3.40;;
15878;SDS011;61999;51.514;14.614;2024-01-07T13:51:43;3.63;;;3.00;;
15878;SDS011;61999;51.514;14.614;2024-01-07T13:54:12;5.10;;;3.60;;
15878;SDS011;61999;51.514;14.614;2024-01-07T13:56:40;3.77;;;2.87;;
15878;SDS011;61999;51.514;14.614;2024-01-07T13:59:10;8.80;;;5.50;;
15878;SDS011;61999;51.514;14.614;2024-01-07T14:01:38;5.47;;;3.10;;
15878;SDS011;61999;51.514;14.614;2024-01-07T14:04:09;3.30;;;3.00;;
15878;SDS011;61999;51.514;14.614;2024-01-07T14:06:38;2.87;;;2.57;;
15878;SDS011;61999;51.514;14.614;2024-01-07T14:09:09;3.80;;;2.80;;
15878;SDS011;61999;51.514;14.614;2024-01-07T14:11:38;4.33;;;3.40;;
15878;SDS011;61999;51.514;14.614;2024-01-07T14:14:06;3.60;;;3.30;;
15878;SDS011;61999;51.514;14.614;2024-01-07T14:16:34;4.50;;;3.70;;
15878;SDS011;61999;51.514;14.614;2024-01-07T14:19:02;5.23;;;4.07;;
15878;SDS011;61999;51.514;14.614;2024-01-07T14:21:30;3.80;;;3.40;;
15878;SDS011;61999;51.514;14.614;2024-01-07T14:24:00;3.40;;;3.10;;
15878;SDS011;61999;51.514;14.614;2024-01-07T14:26:29;3.30;;;3.00;;
15878;SDS011;61999;51.514;14.614;2024-01-07T14:28:57;4.10;;;3.10;;
15878;SDS011;61999;51.514;14.614;2024-01-07T14:31:26;6.00;;;4.43;;
15878;SDS011;61999;51.514;14.614;2024-01-07T14:33:54;3.53;;;3.20;;
15878;SDS011;61999;51.514;14.614;2024-01-07T14:36:22;4.20;;;3.27;;
15878;SDS011;61999;51.514;14.614;2024-01-07T14:38:50;5.10;;;3.90;;